Time;durP1;ratioP1;P1;durP2;ratioP2;P2;SDS_P1;SDS_P2;PMS_P1;PMS_P2;Temp;Humidity;BMP_temperature;BMP_pressure;BME280_temperature;BME280_humidity;BME280_pressure;Samples;Min_cycle;Max_cycle;Signal;HPM_P1;HPM_P2
2023/01/11 00:01:26;;;;;;;20.25;15.57;;;;;;;6.89;78.61;98878.94;5074790;28;20501;-85
2023/01/11 00:03:51;;;;;;;24.63;19.05;;;;;;;7.67;78.51;98987.53;5074796;28;20107;-85
2023/01/11 00:06:17;;;;;;;25.48;18.00;;;;;;;7.12;78.43;98894.75;5074388;28;20027;-85
2023/01/11 00:08:42;;;;;;;23.63;17.85;;;;;;;6.31;78.62;98774.41;5074342;28;20493;-86
2023/01/11 00:11:15;;;;;;;21.33;15.20;;;;;;;7.38;78.43;98951.38;5073169;28;20078;-86
2023/01/11 00:13:41;;;;;;;23.27;18.02;;;;;;;7.75;78.35;99019.03;5074185;28;20048;-86
2023/01/11 00:16:08;;;;;;;21.23;15.30;;;;;;;7.84;78.76;99023.25;5074254;28;20020;-84
2023/01/11 00:18:34;;;;;;;22.33;16.55;;;;;;;7.84;78.33;99025.88;5074408;28;20031;-86
2023/01/11 00:21:04;;;;;;;19.52;14.40;;;;;;;7.86;78.24;99024.72;5074000;28;20027;-85
2023/01/11 00:23:34;;;;;;;17.25;14.38;;;;;;;7.69;78.57;99006.59;5073902;28;20039;-85
2023/01/11 00:26:09;;;;;;;21.63;14.98;;;;;;;7.64;78.10;99007.09;5074061;28;20027;-85
2023/01/11 00:28:34;;;;;;;18.20;13.60;;;;;;;7.59;77.84;98999.72;5074069;28;20032;-85
2023/01/11 00:31:01;;;;;;;18.55;13.90;;;;;;;7.80;78.55;99033.28;5083659;28;20086;-85
2023/01/11 00:33:26;;;;;;;17.08;14.20;;;;;;;7.59;78.60;99005.00;5092329;28;20028;-86
2023/01/11 00:35:52;;;;;;;17.73;14.38;;;;;;;6.66;78.38;98860.47;5076296;28;20033;-85
2023/01/11 00:47:55;;;;;;;22.17;16.02;;;;;;;7.70;78.19;99035.31;5074252;28;20108;-84
2023/01/11 00:49:15;;;;;;;19.40;14.75;;;;;;;7.71;77.97;99057.16;5073855;28;20043;-84
2023/01/11 00:51:40;;;;;;;19.98;14.95;;;;;;;7.17;78.54;98970.34;5073455;28;20033;-83
2023/01/11 00:54:06;;;;;;;20.38;14.90;;;;;;;7.11;78.54;98957.91;5096289;28;20035;-82
2023/01/11 00:56:31;;;;;;;19.65;13.88;;;;;;;7.43;78.13;99018.19;5082561;28;20025;-84
2023/01/11 00:58:56;;;;;;;16.35;13.15;;;;;;;6.75;78.07;98899.81;5073445;28;20555;-84
2023/01/11 01:01:22;;;;;;;19.25;14.35;;;;;;;7.25;78.17;99020.22;5073407;28;20029;-84
2023/01/11 01:03:47;;;;;;;18.50;14.05;;;;;;;7.52;78.04;99048.69;5073239;28;20202;-85
2023/01/11 01:06:12;;;;;;;15.60;12.35;;;;;;;7.37;78.12;99004.91;5073114;28;20020;-84
2023/01/11 01:08:38;;;;;;;18.20;12.77;;;;;;;7.29;78.02;99001.31;5073154;28;20025;-84
2023/01/11 01:11:03;;;;;;;19.65;14.07;;;;;;;6.68;77.89;98926.69;5071750;28;20512;-84
2023/01/11 01:16:13;;;;;;;33.72;22.25;;;;;;;6.89;77.76;98936.66;5073080;28;20032;-82
2023/01/11 01:18:38;;;;;;;34.35;21.85;;;;;;;7.10;77.76;98972.84;5073053;28;20024;-85
2023/01/11 01:21:04;;;;;;;19.60;13.90;;;;;;;7.68;77.19;99058.31;5072991;28;20497;-85
2023/01/11 01:23:29;;;;;;;15.93;12.13;;;;;;;7.65;77.24;99061.28;5073099;28;20028;-86
2023/01/11 01:25:54;;;;;;;16.38;13.63;;;;;;;7.38;77.22;99033.63;5072729;28;20024;-85
2023/01/11 01:28:21;;;;;;;14.73;11.00;;;;;;;7.78;77.03;99084.38;5072692;28;20028;-85
2023/01/11 01:30:52;;;;;;;16.15;12.77;;;;;;;7.15;76.81;98982.84;5072792;28;20028;-85
2023/01/11 01:33:18;;;;;;;15.05;12.00;;;;;;;7.62;77.01;99065.06;5072755;28;20508;-85
2023/01/11 01:35:43;;;;;;;14.48;12.07;;;;;;;7.16;77.22;98984.47;5072618;28;20122;-85
2023/01/11 01:38:09;;;;;;;17.20;12.77;;;;;;;7.25;76.90;98993.94;5072576;28;20028;-85
2023/01/11 01:40:44;;;;;;;19.63;14.32;;;;;;;7.84;76.84;99094.22;5072685;28;20520;-85
2023/01/11 01:43:11;;;;;;;16.58;12.07;;;;;;;7.84;77.00;99087.13;5071256;28;20420;-84
2023/01/11 01:45:37;;;;;;;18.38;11.93;;;;;;;7.86;77.17;99092.22;5072514;28;20103;-86
2023/01/11 01:48:05;;;;;;;16.25;13.75;;;;;;;7.33;77.15;99000.00;5072531;28;20115;-86
2023/01/11 01:50:39;;;;;;;15.13;12.15;;;;;;;7.68;77.18;99062.75;5072523;28;20078;-85
2023/01/11 01:53:20;;;;;;;16.02;12.80;;;;;;;7.57;77.63;99056.88;5070999;28;20028;-85
2023/01/11 01:55:52;;;;;;;15.68;11.80;;;;;;;7.10;77.57;98978.09;5072296;28;20032;-85
2023/01/11 01:58:22;;;;;;;18.42;13.15;;;;;;;7.54;77.72;99041.47;5072352;28;20081;-85
2023/01/11 02:00:47;;;;;;;20.58;15.25;;;;;;;7.67;77.58;99066.38;5072139;28;20035;-86
2023/01/11 02:03:16;;;;;;;23.80;16.77;;;;;;;6.89;77.82;98941.91;5072059;28;20028;-85
2023/01/11 02:05:42;;;;;;;18.52;12.88;;;;;;;7.32;77.66;99029.88;5072113;28;20420;-85
2023/01/11 02:08:16;;;;;;;17.25;13.38;;;;;;;7.77;77.79;99093.25;5072043;28;20025;-85
2023/01/11 02:10:41;;;;;;;18.95;13.82;;;;;;;7.36;78.10;99025.09;5071699;28;20031;-84
2023/01/11 02:13:11;;;;;;;19.73;13.45;;;;;;;7.03;78.45;98976.31;5070357;28;20052;-85
2023/01/11 02:15:36;;;;;;;25.83;12.95;;;;;;;7.45;77.88;99050.38;5071979;28;20028;-85
2023/01/11 02:18:04;;;;;;;18.08;13.73;;;;;;;7.78;78.26;99089.63;5070785;28;20025;-85
2023/01/11 02:20:51;;;;;;;19.30;14.43;;;;;;;7.76;78.10;99092.44;5071844;28;20078;-84
2023/01/11 02:23:46;;;;;;;19.25;13.85;;;;;;;7.62;78.14;99086.09;5071836;28;20028;-85
2023/01/11 02:26:44;;;;;;;17.00;12.00;;;;;;;7.10;78.11;99000.91;5064318;28;20021;-84
2023/01/11 02:29:25;;;;;;;18.02;13.55;;;;;;;7.42;78.13;99053.28;5072031;28;20412;-86
2023/01/11 02:32:19;;;;;;;18.30;12.38;;;;;;;7.51;78.06;99070.69;5072523;28;20020;-84
2023/01/11 02:35:06;;;;;;;16.25;12.27;;;;;;;7.27;78.08;99029.56;5070749;28;20482;-85
2023/01/11 02:37:59;;;;;;;17.08;12.07;;;;;;;7.68;78.51;99099.53;5071502;28;20074;-84
2023/01/11 02:40:53;;;;;;;15.93;12.52;;;;;;;7.66;78.80;99102.34;5071549;28;20501;-85
2023/01/11 02:46:52;;;;;;;14.35;11.75;;;;;;;7.71;77.99;99094.75;5070556;28;20472;-85
2023/01/11 02:49:43;;;;;;;12.15;10.02;;;;;;;7.71;78.43;99089.50;5070075;28;20428;-84
2023/01/11 02:52:17;;;;;;;11.48;8.70;;;;;;;7.48;77.68;99059.72;5070357;28;20040;-83
2023/01/11 02:54:46;;;;;;;9.73;7.93;;;;;;;7.10;77.48;98985.97;5071235;28;20025;-85
2023/01/11 02:57:14;;;;;;;10.32;8.43;;;;;;;7.44;77.59;99061.84;5071526;28;20025;-84
2023/01/11 02:59:40;;;;;;;11.45;8.35;;;;;;;7.11;77.26;99000.72;5071525;28;20028;-84
2023/01/11 03:02:06;;;;;;;11.60;8.93;;;;;;;7.05;77.81;98995.34;5071313;28;20031;-84
2023/01/11 03:04:34;;;;;;;10.50;7.65;;;;;;;7.33;77.32;99049.06;5071233;28;20033;-83
2023/01/11 03:07:32;;;;;;;7.63;6.68;;;;;;;7.64;77.25;99093.81;5070184;28;20081;-83
2023/01/11 03:10:20;;;;;;;7.95;6.20;;;;;;;7.65;76.79;99106.75;5071346;28;20085;-84
2023/01/11 03:12:54;;;;;;;5.70;4.95;;;;;;;7.68;77.16;99097.72;5069620;28;20105;-85
2023/01/11 03:15:39;;;;;;;6.82;5.93;;;;;;;7.69;76.30;99098.53;5069902;28;20028;-85
2023/01/11 03:18:13;;;;;;;7.03;5.45;;;;;;;7.70;76.63;99110.69;5071135;28;20059;-84
2023/01/11 03:20:46;;;;;;;7.53;5.38;;;;;;;7.32;76.35;99052.69;5074301;28;20028;-83
2023/01/11 03:23:18;;;;;;;6.25;4.65;;;;;;;7.69;76.58;99111.69;5094295;28;20033;-85
2023/01/11 03:26:10;;;;;;;;;;;;;;;7.50;75.96;99113.72;5078884;28;20099;-83
2023/01/11 03:28:54;;;;;;;6.05;4.70;;;;;;;7.57;76.17;99127.00;5071446;28;19962;-84
2023/01/11 03:31:31;;;;;;;5.43;4.18;;;;;;;7.54;76.40;99130.78;5071147;28;20073;-85
2023/01/11 03:34:21;;;;;;;5.55;5.00;;;;;;;7.54;76.45;99128.16;5070948;28;20158;-84
2023/01/11 03:36:59;;;;;;;6.38;4.82;;;;;;;7.53;76.17;99126.50;5071369;28;20057;-84
2023/01/11 03:39:41;;;;;;;7.38;5.20;;;;;;;7.57;75.92;99116.47;5071292;28;20052;-84
2023/01/11 03:42:10;;;;;;;7.97;5.28;;;;;;;6.97;76.34;99025.06;5079684;28;20043;-83
2023/01/11 03:44:42;;;;;;;5.13;4.63;;;;;;;7.29;75.92;99087.97;5097714;28;20012;-81
2023/01/11 03:47:11;;;;;;;6.57;5.25;;;;;;;7.61;76.27;99152.75;5074726;28;20029;-84
2023/01/11 03:49:47;;;;;;;4.82;4.22;;;;;;;6.97;76.38;99031.13;5069624;28;20105;-84
2023/01/11 03:52:16;;;;;;;4.43;4.03;;;;;;;7.07;75.95;99054.56;5069705;28;20404;-84
2023/01/11 03:54:43;;;;;;;5.60;4.60;;;;;;;7.30;75.64;99102.75;5070765;28;20493;-83
2023/01/11 03:57:22;;;;;;;7.63;4.97;;;;;;;7.58;76.01;99155.72;5070836;28;20032;-84
2023/01/11 03:59:48;;;;;;;6.72;5.22;;;;;;;7.39;75.87;99131.59;5074515;28;20490;-84
2023/01/11 04:02:24;;;;;;;6.55;5.80;;;;;;;7.56;76.06;99155.06;5074486;28;20020;-83
2023/01/11 04:04:50;;;;;;;6.75;5.63;;;;;;;7.50;76.08;99153.13;5074329;28;20505;-83
2023/01/11 04:07:17;;;;;;;6.25;5.75;;;;;;;7.47;76.31;99156.06;5074346;28;20055;-83
2023/01/11 04:09:43;;;;;;;6.53;5.10;;;;;;;7.02;76.53;99090.97;5074360;28;20021;-83
2023/01/11 04:12:08;;;;;;;6.55;5.85;;;;;;;6.61;76.19;99046.38;5074131;28;20055;-83
2023/01/11 04:14:34;;;;;;;7.13;5.15;;;;;;;7.20;76.17;99140.66;5072857;28;20032;-83
2023/01/11 04:16:59;;;;;;;7.85;6.00;;;;;;;6.87;76.35;99069.84;5072685;28;20491;-82
2023/01/11 04:19:25;;;;;;;14.95;10.55;;;;;;;6.99;76.24;99107.06;5073844;28;20048;-83
2023/01/11 04:21:50;;;;;;;11.23;8.75;;;;;;;6.56;76.37;99030.31;5073913;28;20021;-83
2023/01/11 04:24:17;;;;;;;9.32;6.97;;;;;;;7.22;76.52;99133.44;5074206;28;20059;-83
2023/01/11 04:26:43;;;;;;;8.90;6.70;;;;;;;7.42;76.29;99178.53;5074313;28;20025;-83
2023/01/11 04:29:09;;;;;;;7.00;6.25;;;;;;;7.15;76.75;99124.59;5073935;28;20024;-83
2023/01/11 04:31:34;;;;;;;11.70;9.82;;;;;;;6.89;76.74;99098.53;5072377;28;20111;-83
2023/01/11 04:34:00;;;;;;;9.93;8.05;;;;;;;7.35;76.37;99188.91;5073650;28;20035;-83
2023/01/11 04:36:27;;;;;;;8.13;7.30;;;;;;;6.98;76.89;99115.91;5073781;28;20021;-82
2023/01/11 04:38:53;;;;;;;7.55;6.38;;;;;;;6.74;76.59;99076.59;5073623;28;20025;-82
2023/01/11 04:44:02;;;;;;;6.18;5.45;;;;;;;6.73;76.19;99082.81;5074072;28;20466;-83
2023/01/11 04:46:27;;;;;;;7.97;6.63;;;;;;;7.11;75.93;99183.66;5073817;28;20103;-82
2023/01/11 04:48:55;;;;;;;9.02;7.13;;;;;;;7.06;75.75;99170.22;5073645;28;20032;-82
2023/01/11 04:51:20;;;;;;;9.88;8.13;;;;;;;7.11;75.58;99158.25;5073765;28;20029;-82
2023/01/11 04:53:50;;;;;;;9.77;7.57;;;;;;;7.40;76.40;99204.16;5073510;28;20032;-82
2023/01/11 04:56:16;;;;;;;9.95;8.20;;;;;;;7.40;76.03;99212.03;5073753;28;20040;-82
2023/01/11 04:58:42;;;;;;;8.95;7.88;;;;;;;7.06;76.23;99172.84;5073536;28;20028;-82
2023/01/11 05:01:14;;;;;;;9.90;8.07;;;;;;;6.85;75.62;99140.03;5073320;28;20523;-82
2023/01/11 05:03:39;;;;;;;8.35;6.88;;;;;;;7.12;75.85;99180.06;5073128;28;20497;-83
2023/01/11 05:06:05;;;;;;;8.93;8.02;;;;;;;7.15;75.86;99177.91;5071991;28;20028;-84
2023/01/11 05:08:30;;;;;;;8.93;7.93;;;;;;;7.34;75.84;99209.09;5072936;28;20107;-82
2023/01/11 05:10:59;;;;;;;9.88;7.80;;;;;;;7.41;76.15;99230.25;5072481;28;20035;-82
2023/01/11 05:13:40;;;;;;;9.63;8.27;;;;;;;7.39;75.89;99236.66;5072842;28;20532;-82
2023/01/11 05:16:26;;;;;;;9.40;8.27;;;;;;;7.38;75.84;99243.72;5073040;28;20024;-82
2023/01/11 05:18:53;;;;;;;10.65;8.52;;;;;;;7.12;76.31;99201.88;5072714;28;20107;-84
2023/01/11 05:21:22;;;;;;;10.88;9.50;;;;;;;7.42;76.45;99239.78;5073172;28;20416;-82
2023/01/11 05:23:48;;;;;;;10.57;9.48;;;;;;;6.86;76.04;99156.59;5071462;28;20115;-82
2023/01/11 05:26:17;;;;;;;9.73;8.60;;;;;;;7.44;75.99;99250.97;5073004;28;20025;-81
2023/01/11 05:28:43;;;;;;;10.25;9.15;;;;;;;6.97;76.02;99200.91;5072775;28;20028;-81
2023/01/11 05:31:08;;;;;;;12.63;11.20;;;;;;;7.37;76.53;99243.88;5072940;28;20074;-82
2023/01/11 05:33:34;;;;;;;16.20;13.68;;;;;;;6.94;76.10;99175.78;5071479;28;20024;-82
2023/01/11 05:36:01;;;;;;;17.40;14.82;;;;;;;7.45;75.99;99252.63;5072806;28;20062;-83
2023/01/11 05:38:27;;;;;;;21.90;17.15;;;;;;;7.41;76.07;99235.50;5072582;28;20029;-82
2023/01/11 05:40:58;;;;;;;22.15;18.17;;;;;;;7.41;76.07;99237.31;5071412;28;20433;-82
2023/01/11 05:43:24;;;;;;;22.23;18.13;;;;;;;7.46;76.67;99240.31;5073018;28;20033;-82
2023/01/11 05:45:49;;;;;;;24.35;20.52;;;;;;;7.15;76.72;99172.66;5072307;28;20497;-81
2023/01/11 05:48:15;;;;;;;26.70;23.23;;;;;;;7.42;76.85;99220.56;5072507;28;20052;-81
2023/01/11 05:50:41;;;;;;;31.45;26.58;;;;;;;7.51;76.28;99272.16;5070901;28;20024;-82
2023/01/11 05:53:06;;;;;;;31.90;25.63;;;;;;;6.92;76.35;99142.81;5072057;28;20024;-82
2023/01/11 05:55:32;;;;;;;35.63;27.70;;;;;;;7.47;76.79;99239.31;5072047;28;20025;-81
2023/01/11 05:57:57;;;;;;;36.70;30.00;;;;;;;7.34;76.37;99245.03;5071941;28;20028;-83
2023/01/11 06:00:23;;;;;;;40.60;30.38;;;;;;;6.89;76.71;99153.66;5072116;28;20024;-82
2023/01/11 06:02:48;;;;;;;39.38;30.75;;;;;;;6.93;76.51;99155.78;5072477;28;20519;-82
2023/01/11 06:05:14;;;;;;;42.05;33.17;;;;;;;6.83;76.33;99144.63;5071325;28;20028;-83
2023/01/11 06:07:39;;;;;;;46.70;37.30;;;;;;;7.19;76.53;99199.41;5071019;28;20048;-82
2023/01/11 06:10:05;;;;;;;46.38;36.78;;;;;;;7.59;76.86;99262.44;5073168;28;20034;-82
2023/01/11 06:12:30;;;;;;;47.17;35.67;;;;;;;7.10;76.12;99182.84;5096833;28;20056;-81
2023/01/11 06:14:56;;;;;;;42.88;32.45;;;;;;;6.67;76.21;99141.97;5088360;28;20120;-83
2023/01/11 06:17:21;;;;;;;35.33;28.70;;;;;;;7.23;76.47;99219.09;5072296;28;20485;-83
2023/01/11 06:19:46;;;;;;;34.58;27.35;;;;;;;6.71;76.12;99145.13;5072136;28;20082;-81
2023/01/11 06:22:12;;;;;;;32.13;25.40;;;;;;;6.09;75.86;99031.94;5071703;28;20020;-83
2023/01/11 06:24:37;;;;;;;38.05;29.92;;;;;;;6.68;75.60;99128.69;5070530;28;20020;-82
2023/01/11 06:27:03;;;;;;;42.70;31.60;;;;;;;7.15;75.66;99219.09;5071852;28;20485;-81
2023/01/11 06:29:28;;;;;;;36.95;29.77;;;;;;;7.34;76.07;99234.53;5071869;28;20028;-82
2023/01/11 06:31:53;;;;;;;39.28;30.73;;;;;;;7.64;75.73;99290.84;5072123;28;20504;-82
2023/01/11 06:34:19;;;;;;;76.50;46.45;;;;;;;7.61;75.30;99292.00;5096361;28;20019;-80
2023/01/11 06:36:44;;;;;;;69.20;44.35;;;;;;;7.01;75.05;99203.03;5081610;28;20024;-81
2023/01/11 06:39:09;;;;;;;45.47;32.70;;;;;;;7.36;75.25;99247.50;5068737;28;20024;-82
2023/01/11 06:41:35;;;;;;;43.35;30.20;;;;;;;7.45;75.26;99275.44;5066549;28;20027;-82
2023/01/11 06:44:00;;;;;;;43.15;31.33;;;;;;;7.52;75.05;99271.97;5069632;28;20032;-83
2023/01/11 06:46:26;;;;;;;37.55;26.85;;;;;;;7.30;74.76;99236.66;5068290;28;20501;-83
2023/01/11 06:48:51;;;;;;;39.63;27.92;;;;;;;7.74;74.85;99306.44;5071320;28;20112;-83
2023/01/11 06:51:16;;;;;;;40.10;29.58;;;;;;;7.74;74.84;99312.53;5071418;28;20084;-82
2023/01/11 06:53:43;;;;;;;47.70;34.78;;;;;;;7.65;74.70;99303.81;5068481;28;20496;-82
2023/01/11 06:56:15;;;;;;;41.47;30.52;;;;;;;7.77;75.03;99308.75;5071044;28;20039;-82
2023/01/11 06:58:41;;;;;;;44.10;31.88;;;;;;;7.43;75.19;99251.97;5066321;28;20089;-82
2023/01/11 07:01:06;;;;;;;48.92;31.15;;;;;;;7.77;74.91;99292.97;5061312;28;20420;-81
2023/01/11 07:03:32;;;;;;;56.03;35.30;;;;;;;7.08;74.96;99189.25;5070802;28;20032;-81
2023/01/11 07:05:57;;;;;;;85.18;51.20;;;;;;;7.47;74.77;99265.59;5069200;28;20031;-81
2023/01/11 07:08:24;;;;;;;70.60;42.88;;;;;;;7.60;74.22;99276.41;5070938;28;20042;-82
2023/01/11 07:10:50;;;;;;;68.80;41.13;;;;;;;7.73;74.58;99313.50;5070362;28;20048;-82
2023/01/11 07:13:16;;;;;;;67.50;43.75;;;;;;;7.32;73.77;99265.38;5070360;28;20149;-81
2023/01/11 07:15:48;;;;;;;59.70;39.42;;;;;;;7.26;74.05;99261.63;5068059;28;20582;-82
2023/01/11 07:18:14;;;;;;;14.20;10.82;;;;;;;7.17;74.06;99269.66;5070005;28;20028;-82
2023/01/11 07:20:40;;;;;;;11.85;8.60;;;;;;;7.09;73.45;99259.97;5069874;28;20036;-81
2023/01/11 07:23:09;;;;;;;10.05;8.95;;;;;;;7.40;73.27;99315.28;5067583;28;20052;-82
2023/01/11 07:25:35;;;;;;;10.35;8.65;;;;;;;7.16;73.26;99273.25;5067097;28;20021;-82
2023/01/11 07:28:06;;;;;;;11.60;8.32;;;;;;;7.47;72.82;99310.22;5071080;28;20107;-83
2023/01/11 07:30:34;;;;;;;8.38;7.53;;;;;;;7.29;73.26;99291.97;5070589;28;20028;-82
2023/01/11 07:33:00;;;;;;;11.88;9.50;;;;;;;7.60;72.97;99344.72;5072792;28;20107;-84
2023/01/11 07:35:26;;;;;;;11.95;10.20;;;;;;;7.43;72.90;99322.03;5073526;28;20051;-83
2023/01/11 07:37:52;;;;;;;16.88;12.77;;;;;;;7.64;73.08;99348.66;5072070;28;20069;-82
2023/01/11 07:40:18;;;;;;;17.50;11.68;;;;;;;7.23;72.82;99290.00;5069699;28;20020;-82
2023/01/11 07:45:37;;;;;;;17.58;12.98;;;;;;;7.41;71.99;99331.88;5054867;28;20414;-83
2023/01/11 07:48:04;;;;;;;13.77;10.52;;;;;;;7.60;72.11;99368.38;5060998;28;20111;-84
2023/01/11 07:50:30;;;;;;;9.88;8.20;;;;;;;7.63;72.42;99365.41;5067803;28;20102;-82
2023/01/11 07:52:55;;;;;;;13.15;11.20;;;;;;;7.67;72.44;99379.03;5068721;28;20032;-83
2023/01/11 07:55:21;;;;;;;9.23;7.57;;;;;;;7.10;71.97;99293.09;5072206;28;20028;-82
2023/01/11 07:57:46;;;;;;;8.52;7.00;;;;;;;7.45;72.08;99360.31;5073420;28;20090;-83
2023/01/11 08:00:13;;;;;;;7.30;6.60;;;;;;;7.22;72.18;99322.50;5071397;28;20030;-84
2023/01/11 08:02:38;;;;;;;6.57;5.80;;;;;;;6.99;71.68;99286.38;5073527;28;20029;-84
2023/01/11 08:05:04;;;;;;;5.95;5.43;;;;;;;7.20;71.67;99330.53;5073838;28;20032;-85
2023/01/11 08:07:29;;;;;;;5.78;5.18;;;;;;;7.32;72.23;99349.44;5069490;28;20056;-85
2023/01/11 08:09:55;;;;;;;5.43;4.93;;;;;;;7.65;71.88;99397.59;5071785;28;20032;-85
2023/01/11 08:15:05;;;;;;;8.48;7.57;;;;;;;6.98;72.23;99295.22;5074627;28;20475;-85
2023/01/11 08:17:32;;;;;;;8.15;6.75;;;;;;;7.04;71.62;99327.06;5072815;28;20040;-85
2023/01/11 08:19:58;;;;;;;10.30;6.90;;;;;;;6.37;71.41;99212.41;5067840;28;20060;-84
2023/01/11 08:22:23;;;;;;;7.10;6.30;;;;;;;7.29;71.35;99368.13;5066664;28;20115;-84
2023/01/11 08:24:49;;;;;;;11.70;7.95;;;;;;;5.93;71.47;99185.50;5072272;28;20032;-82
2023/01/11 08:27:14;;;;;;;12.82;8.48;;;;;;;7.62;71.25;99422.41;5071627;28;20024;-83
2023/01/11 08:29:43;;;;;;;13.07;9.60;;;;;;;7.13;71.83;99358.41;5072740;28;20032;-83
2023/01/11 08:32:08;;;;;;;18.42;12.38;;;;;;;6.91;71.28;99309.16;5073205;28;20489;-83
2023/01/11 08:34:34;;;;;;;15.90;11.77;;;;;;;7.26;71.25;99358.78;5070868;28;20085;-83
2023/01/11 08:37:00;;;;;;;13.80;10.07;;;;;;;7.74;71.09;99458.88;5070376;28;20029;-84
2023/01/11 08:39:29;;;;;;;10.40;8.35;;;;;;;7.48;70.96;99391.50;5070895;28;20061;-84
2023/01/11 08:41:56;;;;;;;10.55;7.90;;;;;;;7.61;70.97;99419.94;5074971;28;20029;-84
2023/01/11 08:44:21;;;;;;;11.25;9.45;;;;;;;7.49;70.77;99398.41;5072815;28;20090;-85
2023/01/11 08:46:47;;;;;;;10.88;8.15;;;;;;;7.49;70.54;99405.47;5072128;28;20530;-86
2023/01/11 08:49:12;;;;;;;8.05;7.20;;;;;;;7.35;70.17;99375.38;5068741;28;20028;-84
2023/01/11 08:51:39;;;;;;;11.98;10.15;;;;;;;7.80;70.22;99437.19;5069215;28;20028;-84
2023/01/11 08:54:08;;;;;;;9.38;7.90;;;;;;;6.84;70.05;99290.59;5062944;28;20028;-85
2023/01/11 08:56:34;;;;;;;7.40;5.97;;;;;;;7.28;70.13;99356.81;5071996;28;20417;-85
2023/01/11 08:59:01;;;;;;;7.00;5.63;;;;;;;7.84;70.19;99443.78;5073074;28;20025;-85
2023/01/11 09:01:26;;;;;;;7.55;5.75;;;;;;;7.01;69.79;99354.44;5073012;28;20024;-86
2023/01/11 09:03:52;;;;;;;7.68;5.88;;;;;;;7.25;69.49;99346.63;5066974;28;20420;-86
2023/01/11 09:06:17;;;;;;;6.75;5.68;;;;;;;7.70;69.53;99426.03;5066847;28;20044;-82
2023/01/11 09:08:43;;;;;;;6.65;5.65;;;;;;;6.96;69.19;99305.06;5070120;28;20082;-82
2023/01/11 09:11:52;;;;;;;6.93;5.63;;;;;;;7.37;69.73;99381.28;5071536;28;20029;-84
2023/01/11 09:13:54;;;;;;;7.35;6.07;;;;;;;7.43;69.29;99385.91;5069853;28;20358;-83
2023/01/11 09:16:19;;;;;;;5.80;5.20;;;;;;;6.40;68.86;99207.81;5071800;28;20424;-83
2023/01/11 09:18:44;;;;;;;6.72;5.70;;;;;;;7.06;69.54;99319.84;5070303;28;20033;-83
2023/01/11 09:21:10;;;;;;;8.30;6.40;;;;;;;7.12;69.13;99334.94;5065175;28;20028;-83
2023/01/11 09:23:36;;;;;;;8.00;6.82;;;;;;;7.29;69.70;99383.88;5063854;28;20029;-84
2023/01/11 09:26:02;;;;;;;8.90;6.80;;;;;;;7.37;69.35;99391.78;5066604;28;20405;-85
2023/01/11 09:28:27;;;;;;;9.55;8.18;;;;;;;7.03;68.94;99304.41;5068640;28;20039;-83
2023/01/11 09:30:52;;;;;;;12.02;9.25;;;;;;;7.52;68.93;99394.63;5072634;28;20111;-85
2023/01/11 09:33:18;;;;;;;13.18;8.52;;;;;;;7.17;68.71;99335.28;5069923;28;20523;-85
2023/01/11 09:35:45;;;;;;;11.70;8.70;;;;;;;7.09;68.81;99320.34;5084414;28;20032;-85
2023/01/11 09:38:10;;;;;;;10.25;8.18;;;;;;;6.75;68.70;99264.50;5091430;28;20028;-84
2023/01/11 09:40:54;;;;;;;11.13;8.48;;;;;;;7.72;68.98;99427.50;5071352;28;20466;-84
2023/01/11 09:43:23;;;;;;;18.23;13.65;;;;;;;7.73;69.06;99423.88;5069422;28;20115;-84
2023/01/11 09:45:51;;;;;;;15.25;11.27;;;;;;;7.10;69.18;99321.97;5070900;28;20029;-85
2023/01/11 09:48:35;;;;;;;9.93;8.77;;;;;;;7.78;69.09;99426.84;5069666;28;20024;-84
2023/01/11 09:51:01;;;;;;;9.52;8.52;;;;;;;7.36;69.31;99369.13;5057446;28;20048;-86
2023/01/11 09:53:33;;;;;;;12.18;9.45;;;;;;;7.48;69.22;99372.28;5065594;28;20350;-84
2023/01/11 09:56:02;;;;;;;12.10;9.00;;;;;;;7.51;69.36;99385.09;5068037;28;20047;-81
2023/01/11 09:58:47;;;;;;;11.15;8.88;;;;;;;7.85;69.41;99425.22;5071776;28;20016;-84
2023/01/11 10:01:37;;;;;;;12.68;8.82;;;;;;;7.86;69.33;99426.03;5065333;28;20048;-84
2023/01/11 10:04:24;;;;;;;13.50;9.45;;;;;;;7.80;69.36;99418.81;5069976;28;20029;-85
2023/01/11 10:07:02;;;;;;;10.52;8.57;;;;;;;7.80;69.02;99411.75;5064790;28;20020;-86
2023/01/11 10:09:40;;;;;;;10.32;8.70;;;;;;;7.79;68.81;99404.03;5055986;28;20025;-85
2023/01/11 10:12:15;;;;;;;8.27;7.07;;;;;;;7.23;69.08;99332.84;5067437;28;20047;-84
2023/01/11 10:14:56;;;;;;;9.00;7.53;;;;;;;7.80;69.48;99403.03;5070288;28;20100;-85
2023/01/11 10:17:41;;;;;;;9.18;7.55;;;;;;;7.79;69.07;99411.91;5065580;28;20048;-82
2023/01/11 10:20:29;;;;;;;7.32;6.55;;;;;;;7.83;69.09;99410.59;5067326;28;20024;-83
2023/01/11 10:23:05;;;;;;;10.63;8.75;;;;;;;7.16;69.17;99302.13;5068103;28;20081;-82
2023/01/11 10:25:41;;;;;;;9.13;8.23;;;;;;;7.05;69.43;99276.19;5066895;28;20095;-85
2023/01/11 10:28:18;;;;;;;9.30;7.07;;;;;;;7.81;69.06;99413.38;5068721;28;20558;-85
2023/01/11 10:42:09;;;;;;;6.88;5.90;;;;;;;7.48;68.89;99331.09;5062476;28;20029;-84
2023/01/11 10:45:04;;;;;;;8.07;6.07;;;;;;;7.63;68.78;99379.38;5070457;28;20016;-83
2023/01/11 10:48:01;;;;;;;8.20;6.25;;;;;;;8.01;69.00;99448.06;5060644;28;20408;-85
2023/01/11 10:50:37;;;;;;;6.45;5.72;;;;;;;8.04;69.74;99410.91;5057662;28;20127;-86
2023/01/11 10:53:13;;;;;;;7.47;5.70;;;;;;;8.07;69.79;99415.03;5060510;28;20053;-86
2023/01/11 10:56:05;;;;;;;8.38;6.03;;;;;;;8.06;69.96;99416.00;5065930;28;20026;-86
2023/01/11 10:58:56;;;;;;;9.05;6.72;;;;;;;8.06;69.87;99427.34;5060204;28;20077;-87
2023/01/11 11:01:45;;;;;;;11.25;7.75;;;;;;;8.08;70.82;99429.81;5059464;28;20103;-85
2023/01/11 11:04:42;;;;;;;10.68;8.05;;;;;;;8.08;70.87;99438.53;5068693;28;20059;-86
2023/01/11 11:07:41;;;;;;;13.40;8.65;;;;;;;8.08;70.89;99424.56;5055098;28;20033;-86
2023/01/11 11:10:20;;;;;;;9.43;8.43;;;;;;;8.07;71.27;99426.38;5060626;28;20041;-85
2023/01/11 11:13:12;;;;;;;9.68;7.38;;;;;;;8.03;71.58;99425.06;5065373;28;20654;-84
2023/01/11 11:15:37;;;;;;;6.90;6.20;;;;;;;7.94;71.91;99418.97;5087216;28;20051;-86
2023/01/11 11:18:03;;;;;;;8.63;7.45;;;;;;;7.40;71.24;99330.22;5073586;28;20493;-85
2023/01/11 11:20:32;;;;;;;8.43;7.40;;;;;;;7.52;71.22;99348.16;5072844;28;20447;-86
2023/01/11 11:22:58;;;;;;;10.50;8.15;;;;;;;7.39;71.86;99328.59;5070840;28;20028;-87
2023/01/11 11:25:38;;;;;;;12.55;9.20;;;;;;;7.82;71.71;99412.41;5074670;28;20077;-84
2023/01/11 11:28:23;;;;;;;8.05;6.75;;;;;;;7.75;71.49;99398.25;5073730;28;20095;-84
2023/01/11 11:30:54;;;;;;;7.95;7.15;;;;;;;7.10;71.63;99290.47;5053681;28;20028;-87
2023/01/11 11:33:24;;;;;;;8.23;7.40;;;;;;;7.49;72.30;99355.56;5067777;28;20028;-86
2023/01/11 11:35:56;;;;;;;9.85;7.30;;;;;;;7.75;71.89;99386.94;5062811;28;20082;-88
2023/01/11 11:38:27;;;;;;;7.03;6.32;;;;;;;7.93;72.53;99430.47;5070326;28;20021;-85
2023/01/11 11:41:18;;;;;;;5.65;5.15;;;;;;;7.82;72.10;99414.19;5067396;28;20032;-87
2023/01/11 11:43:46;;;;;;;8.52;7.22;;;;;;;7.25;72.36;99323.00;5073464;28;20051;-88
2023/01/11 11:46:14;;;;;;;9.27;6.93;;;;;;;7.95;72.75;99427.69;5071749;28;20501;-86
2023/01/11 11:48:41;;;;;;;9.05;7.63;;;;;;;7.69;73.16;99383.16;5074079;28;20077;-84
2023/01/11 11:51:14;;;;;;;7.22;6.50;;;;;;;7.27;72.42;99307.91;5070644;28;20042;-85
2023/01/11 11:53:41;;;;;;;7.90;7.07;;;;;;;7.99;72.77;99418.47;5072487;28;20119;-86
2023/01/11 11:56:27;;;;;;;9.60;7.20;;;;;;;8.00;72.93;99419.28;5072741;28;20027;-87
2023/01/11 11:58:54;;;;;;;10.85;8.10;;;;;;;7.71;73.03;99389.06;5071929;28;20054;-83
2023/01/11 12:01:27;;;;;;;9.50;8.50;;;;;;;7.43;73.14;99343.88;5067633;28;20016;-86
2023/01/11 12:04:12;;;;;;;7.97;7.13;;;;;;;7.75;73.05;99397.44;5082872;28;20033;-87
2023/01/11 12:06:39;;;;;;;11.65;9.45;;;;;;;7.71;73.49;99375.09;5064818;28;20025;-84
2023/01/11 12:09:11;;;;;;;12.73;10.13;;;;;;;7.46;73.39;99350.63;5065820;28;20454;-85
2023/01/11 12:11:40;;;;;;;11.20;10.00;;;;;;;8.08;73.53;99428.00;5070651;28;20024;-84
2023/01/11 12:14:09;;;;;;;13.45;10.10;;;;;;;8.11;73.48;99424.22;5072918;28;20050;-84
2023/01/11 12:16:38;;;;;;;15.55;11.98;;;;;;;7.31;73.40;99313.63;5074206;28;20052;-85
2023/01/11 12:19:23;;;;;;;14.10;10.00;;;;;;;8.12;73.70;99433.75;5090473;28;20054;-84
2023/01/11 12:21:49;;;;;;;16.33;10.48;;;;;;;8.12;73.75;99421.44;5095408;28;20485;-83
2023/01/11 12:24:18;;;;;;;11.40;9.85;;;;;;;7.45;74.13;99310.41;5069934;28;20016;-85